• Join FlightAware (Why Join?)
  • Login
  • US Flag 
03:03AM EST


 

Airport Tracker/Info


-or-


 

Live Flight TrackerFlight Track Log ✈ SWA2153 ✈ 26-Aug-2013 ✈ KPIT - KHOU

Flight Track Log - Related Links

Times and Time Zones

All times are in EDT time to prevent confusion due to time zone crossing. See the SWA2153 flight status page for this flight to view local times or setup timezone preferences in your user account.

Time Position Orientation Groundspeed Altitude Reporting Facility
EDT Latitude Longitude Course Direction KTS MPH feet Rate Location/Type
03:33PM 40.5067 -80.3511 270° West 208 239 4,300  Level Cleveland Center
03:34PM 40.5069 -80.4492 270° West 266 306 7,000 3,060 Climbing Cleveland Center
03:35PM 40.5028 -80.5394 267° West 272 313 10,500 2,880 Climbing Cleveland Center
03:36PM 40.5008 -80.6542 269° West 287 330 12,800 2,640 Climbing Cleveland Center
03:37PM 40.4986 -80.7769 269° West 318 366 15,800 2,700 Climbing Cleveland Center
03:38PM 40.4939 -80.9081 267° West 344 396 18,300 2,580 Climbing Cleveland Center
03:39PM 40.4500 -81.4420 270° West  Level FlightAware Approximate
03:39PM 40.4914 -81.0417 269° West 361 415 21,000  Level Cleveland Center
03:40PM 40.4886 -81.1836 269° West 378 435 23,300 1,980 Climbing Cleveland Center
03:42PM 40.4781 -81.4689 267° West 405 466 27,000 1,500 Climbing Indianapolis Center
03:43PM 40.4717 -81.6528 267° West 424 488 28,000 480 Climbing Indianapolis Center
03:44PM 40.4683 -81.8114 268° West 429 494 28,000 420 Level Indianapolis Center
03:45PM 40.4622 -81.9717 267° West 433 498 28,900 1,080 Climbing Indianapolis Center
03:47PM 40.4575 -82.1350 268° West 441 507 30,300 1,440 Climbing Indianapolis Center
03:48PM 40.4436 -82.2997 264° West 449 517 31,900 1,260 Climbing Indianapolis Center
03:49PM 40.4303 -82.4692 264° West 459 528 33,000 1,200 Climbing Indianapolis Center
03:50PM 40.4158 -82.6414 264° West 467 537 34,500 1,620 Climbing Indianapolis Center
03:51PM 40.4003 -82.8247 264° West 466 536 36,400 1,500 Climbing Indianapolis Center
03:52PM 40.3858 -82.9881 263° West 457 526 37,700 1,200 Climbing Indianapolis Center
03:53PM 40.3717 -83.1528 264° West 457 526 39,000 1,080 Climbing Indianapolis Center
03:54PM 40.3569 -83.3128 263° West 448 516 40,000 480 Climbing Indianapolis Center
03:55PM 40.3397 -83.5031 263° West 443 510 40,000  Level Indianapolis Center
03:56PM 40.3253 -83.6622 263° West 443 510 40,000  Level Indianapolis Center
03:57PM 40.3103 -83.8211 263° West 443 510 40,000  Level Indianapolis Center
03:58PM 40.2878 -83.9783 259° West 443 510 40,000  Level Indianapolis Center
03:59PM 40.2569 -84.1344 256° West 444 511 40,000  Level Indianapolis Center
04:00PM 40.2278 -84.2897 256° West 443 510 40,000  Level Indianapolis Center
04:01PM 40.1917 -84.4750 256° West 440 506 40,000  Level Indianapolis Center
04:02PM 40.1611 -84.6314 256° West 445 512 40,000  Level Indianapolis Center
04:03PM 40.1311 -84.7856 256° West 441 507 40,000  Level Indianapolis Center
04:04PM 40.0989 -84.9494 256° West 445 512 40,000  Level Indianapolis Center
04:05PM 40.0681 -85.1056 256° West 446 513 40,000  Level Indianapolis Center
04:06PM 40.0369 -85.2617 255° West 446 513 40,000  Level Indianapolis Center
04:07PM 40.0061 -85.4164 255° West 444 511 40,000  Level Indianapolis Center
04:08PM 39.9689 -85.6022 255° West 443 510 40,000  Level Indianapolis Center
04:09PM 39.9369 -85.7561 255° West 442 509 40,000  Level Indianapolis Center
04:10PM 39.9067 -85.9092 256° West 439 505 40,000  Level Indianapolis Center
04:11PM 39.8756 -86.0619 255° West 441 507 40,000  Level Indianapolis Center
04:12PM 39.8453 -86.2128 255° West 438 504 40,000  Level Indianapolis Center
04:13PM 39.8064 -86.3869 254° West 448 516 40,000  Level Indianapolis Center
04:14PM 39.7733 -86.5483 255° West 450 518 40,000  Level Indianapolis Center
04:15PM 39.7406 -86.7017 255° West 447 514 40,000  Level Indianapolis Center
04:16PM 39.7072 -86.8558 254° West 447 514 40,000  Level Indianapolis Center
04:18PM 39.6667 -87.0422 254° West 449 517 40,000  Level Indianapolis Center
04:19PM 39.6333 -87.1975 254° West 449 517 40,000  Level Indianapolis Center
04:20PM 39.5994 -87.3517 254° West 448 516 40,000  Level Indianapolis Center
04:21PM 39.5653 -87.5067 254° West 449 517 40,000  Level Indianapolis Center
04:22PM 39.5297 -87.6611 253° West 449 517 40,000  Level Indianapolis Center
04:23PM 39.4950 -87.8158 254° West 449 517 40,000  Level Indianapolis Center
04:24PM 39.4539 -88.0000 254° West 447 514 40,000  Level Indianapolis Center
04:25PM 39.4186 -88.1556 254° West 451 519 40,000  Level Indianapolis Center
04:26PM 39.3822 -88.3131 253° West 448 516 40,000  Level Kansas City Center
04:27PM 39.3436 -88.4703 252° West 453 521 40,000  Level Kansas City Center
04:28PM 39.3058 -88.6347 254° West 453 521 40,000  Level Kansas City Center
04:29PM 39.2703 -88.7906 254° West 454 522 40,000  Level Kansas City Center
04:30PM 39.2264 -88.9789 253° West 457 526 40,000  Level Kansas City Center
04:31PM 39.1892 -89.1372 253° West 463 533 40,000  Level Kansas City Center
04:32PM 39.1506 -89.3028 253° West 458 527 40,000  Level Kansas City Center
04:33PM 39.1111 -89.4725 253° West 462 532 40,000  Level Kansas City Center
04:34PM 39.0597 -89.6231 246° West 466 536 40,000  Level Kansas City Center
04:35PM 38.9664 -89.7542 228° Southwest 464 534 40,000  Level Kansas City Center
04:36PM 38.8769 -89.8717 226° Southwest 464 534 40,000  Level Kansas City Center
04:37PM 38.7878 -89.9903 226° Southwest 462 532 40,000  Level Kansas City Center
04:38PM 38.7022 -90.1050 226° Southwest 460 529 40,000  Level Kansas City Center
04:39PM 38.6047 -90.2286 225° Southwest 465 535 40,000  Level Kansas City Center
04:40PM 38.5022 -90.3675 227° Southwest 468 539 40,000  Level Kansas City Center
04:41PM 38.4147 -90.4861 227° Southwest 460 529 40,000  Level Kansas City Center
04:42PM 38.3367 -90.5903 226° Southwest 457 526 40,000  Level Kansas City Center
04:43PM 38.2467 -90.7078 226° Southwest 460 529 40,000  Level Kansas City Center
04:44PM 38.1397 -90.8486 226° Southwest 462 532 40,000  Level Kansas City Center
04:46PM 38.0514 -90.9658 226° Southwest 459 528 40,000  Level Kansas City Center
04:47PM 37.9683 -91.0719 225° Southwest 459 528 40,000  Level Kansas City Center
04:48PM 37.8617 -91.2128 226° Southwest 459 528 40,000  Level Kansas City Center
04:49PM 37.7725 -91.3281 226° Southwest 457 526 40,000  Level Kansas City Center
04:50PM 37.6833 -91.4431 226° Southwest 455 524 40,000  Level Kansas City Center
04:51PM 37.5925 -91.5586 225° Southwest 458 527 40,000  Level Kansas City Center
04:52PM 37.5044 -91.6739 226° Southwest 455 524 40,000  Level Kansas City Center
04:53PM 37.4156 -91.7875 225° Southwest 453 521 40,000  Level Kansas City Center
04:54PM 37.3256 -91.9028 226° Southwest 456 525 40,000  Level Kansas City Center
04:55PM 37.2364 -92.0169 226° Southwest 456 525 40,000  Level Kansas City Center
04:56PM 37.1275 -92.1553 225° Southwest 459 528 40,000  Level Kansas City Center
04:57PM 37.0372 -92.2706 226° Southwest 461 531 40,000  Level Kansas City Center
04:58PM 36.9469 -92.3836 225° Southwest 459 528 40,000  Level Kansas City Center
04:59PM 36.8556 -92.4950 224° Southwest 457 526 40,000  Level Kansas City Center
05:00PM 36.7650 -92.6081 225° Southwest 457 526 40,000 -60 Level Kansas City Center
05:01PM 36.6750 -92.7178 224° Southwest 453 521 39,900  Descending Kansas City Center
05:02PM 36.6228 -92.7872 227° Southwest 465 535 40,000 60 Climbing Memphis Center
05:03PM 36.5353 -92.8956 225° Southwest 459 528 40,000  Level Memphis Center
05:03PM 36.4911 -92.9400 219° Southwest 449 517 40,000  Level Kansas City Center
05:04PM 36.4025 -93.0486 225° Southwest 449 517 40,000  Level Kansas City Center
05:05PM 36.2958 -93.1817 225° Southwest 453 521 40,000  Level Kansas City Center
05:06PM 36.2058 -93.2906 224° Southwest 456 525 40,000  Level Kansas City Center
05:07PM 36.1183 -93.3992 225° Southwest 451 519 40,000  Level Kansas City Center
05:08PM 36.0286 -93.5075 224° Southwest 452 520 40,000  Level Kansas City Center
05:10PM 35.8958 -93.6678 224° Southwest 452 520 40,000  Level Memphis Center
05:11PM 35.8011 -93.7792 224° Southwest 458 527 40,000  Level Memphis Center
05:12PM 35.7125 -93.8878 225° Southwest 458 527 40,000  Level Memphis Center
05:13PM 35.6197 -93.9964 224° Southwest 458 527 40,000  Level Memphis Center
05:14PM 35.5397 -94.0950 225° Southwest 458 527 40,000  Level Memphis Center
05:15PM 35.4447 -94.2003 222° Southwest 458 527 40,000  Level Memphis Center
05:16PM 35.3558 -94.3056 224° Southwest 458 527 40,000  Level Memphis Center
05:18PM 35.1217 -94.5631 222° Southwest 461 531 40,000  Level Fort Worth Center
05:19PM 35.0278 -94.6650 222° Southwest 461 531 40,000  Level Fort Worth Center
05:20PM 34.9342 -94.7669 222° Southwest 456 525 40,000  Level Fort Worth Center
05:21PM 34.8361 -94.8761 222° Southwest 456 525 40,000  Level Fort Worth Center
05:22PM 34.7464 -94.9697 221° Southwest 456 525 40,000  Level Fort Worth Center
05:23PM 34.6522 -95.0711 222° Southwest 441 507 40,000  Level Fort Worth Center
05:24PM 34.5603 -95.1667 221° Southwest 455 524 40,000  Level Fort Worth Center
05:25PM 34.4681 -95.2675 222° Southwest 455 524 40,000  Level Fort Worth Center
05:26PM 34.3736 -95.3653 221° Southwest 455 524 40,000  Level Fort Worth Center
05:27PM 34.2792 -95.4631 221° Southwest 455 524 40,000  Level Fort Worth Center
05:28PM 34.1869 -95.5631 222° Southwest 455 524 40,000  Level Fort Worth Center
05:29PM 34.0964 -95.6503 219° Southwest 455 524 40,000  Level Fort Worth Center
05:30PM 34.0058 -95.7472 222° Southwest 449 517 40,000  Level Fort Worth Center
05:31PM 33.9131 -95.8442 221° Southwest 449 517 40,000  Level Fort Worth Center
05:32PM 33.8081 -95.9536 221° Southwest 455 524 40,000  Level Fort Worth Center
05:33PM 33.7256 -96.0422 222° Southwest 455 524 40,000  Level Fort Worth Center
05:34PM 33.6244 -96.1486 221° Southwest 455 524 40,000  Level Fort Worth Center
05:35PM 33.5294 -96.2447 220° Southwest 455 524 40,000  Level Fort Worth Center
05:36PM 33.4444 -96.3306 220° Southwest 455 524 40,000  Level Fort Worth Center
05:37PM 33.3494 -96.4286 221° Southwest 455 524 40,000  Level Fort Worth Center
05:38PM 33.2222 -96.4747 197° South 432 497 40,000  Level Fort Worth Center
05:39PM 33.0972 -96.4908 186° South 437 503 40,000  Level Fort Worth Center
05:40PM 32.9719 -96.5072 186° South 448 516 40,000  Level Fort Worth Center
05:41PM 32.8511 -96.5233 186° South 453 521 40,000  Level Fort Worth Center
05:42PM 32.7261 -96.5417 187° South 453 521 40,000  Level Fort Worth Center
05:43PM 32.6008 -96.5603 187° South 453 521 40,000  Level Fort Worth Center
05:44PM 32.4800 -96.5761 186° South 447 514 40,000  Level Fort Worth Center
05:45PM 32.3547 -96.5944 187° South 447 514 40,000  Level Fort Worth Center
05:46PM 32.2317 -96.6128 187° South 447 514 40,000  Level Fort Worth Center
05:47PM 32.1086 -96.6311 187° South 447 514 40,000  Level Fort Worth Center
05:48PM 31.9878 -96.6492 187° South 447 514 40,000  Level Fort Worth Center
05:49PM 31.8708 -96.6625 186° South 428 493 40,000  Level Fort Worth Center
05:50PM 31.7728 -96.6764 187° South 437 503 40,000  Level Houston Center
05:51PM 31.6494 -96.6944 187° South 440 506 40,000 -60 Level Houston Center
05:52PM 31.5286 -96.7061 185° South 434 499 39,900 -1,560 Descending Houston Center
05:53PM 31.4044 -96.6617 163° South 457 526 36,900 -2,940 Descending Houston Center
05:54PM 31.2597 -96.6228 167° South 456 525 33,900 -2,880 Descending Houston Center
05:55PM 31.1347 -96.5989 171° South 449 517 31,000 -2,640 Descending Houston Center
05:56PM 31.0108 -96.5831 174° South 443 510 28,600 -2,280 Descending Houston Center
05:57PM 30.8911 -96.5694 174° South 432 497 26,400 -2,220 Descending Houston Center
05:58PM 30.7778 -96.5564 174° South 409 471 24,100 -2,220 Descending Houston Center
05:59PM 30.6803 -96.4983 153° Southeast 392 451 21,900 -2,100 Descending Houston Center
06:00PM 30.5972 -96.4256 143° Southeast 375 432 19,800 -1,920 Descending Houston Center
06:01PM 30.5081 -96.3667 150° Southeast 362 417 18,000 -2,040 Descending Houston Center
06:02PM 30.4278 -96.3261 156° South 356 410 16,200 -2,280 Descending Houston Center
06:03PM 30.3486 -96.2839 155° Southeast 349 402 14,200 -2,160 Descending Houston Center
06:04PM 30.2519 -96.2319 155° Southeast 336 387 11,900 -1,500 Descending Houston Center
06:05PM 30.1725 -96.1853 153° Southeast 319 367 11,000 -480 Descending Houston Center
06:06PM 30.0997 -96.1211 143° Southeast 323 372 11,000  Level Houston Center
06:07PM 30.0308 -96.0517 139° Southeast 320 368 11,000 -60 Level Houston Center
06:08PM 29.9658 -95.9794 136° Southeast 319 367 10,900 -600 Descending Houston Center
06:09PM 29.9075 -95.9117 135° Southeast 282 325 9,800 -1,560 Descending Houston Center
06:10PM 29.8561 -95.8525 135° Southeast 264 304 7,800 -1,920 Descending Houston Center
06:11PM 29.8072 -95.7956 135° Southeast 268 308 6,200 -840 Descending Houston Center
06:12PM 29.7533 -95.7319 134° Southeast 228 262 6,100 -60 Descending Houston Center
06:13PM 29.7133 -95.6861 135° Southeast 214 246 6,100 -60 Level Houston Center
06:14PM 29.6814 -95.6322 124° Southeast 218 251 6,000 -900 Descending Houston Center
06:15PM 29.6914 -95.5589 81° East 238 274 4,300 -1,560 Descending Houston Center
06:16PM 29.6967 -95.5211 81° East 235 270 3,700 -1,020 Descending Houston Center
06:16PM 29.7017 -95.4856 81° East 230 265 3,300 -1,020 Descending Houston Center
06:17PM 29.7061 -95.4500 82° East 228 262 2,700 -780 Descending Houston Center
06:17PM 29.7100 -95.4147 83° East 208 239 2,500 -600 Descending Houston Center
06:18PM 29.7092 -95.3892 92° East 207 238 2,100 -780 Descending Houston Center
06:19PM 29.6944 -95.3414 110° East 177 204 1,300 -780 Descending Houston Center
06:20PM 29.6711 -95.3092 130° Southeast 150 173 600 -720 Descending Houston Center
06:23PM 29.6454 -95.2789 115° Southeast  Level Estimated